US-0460 weather

Falwell Base
Olyphant, Arkansas, United States

Public forecast

Using degrees Fahrenheit for public forecast. Weather courtesy of forecast.io.

METAR (pilot weather report)

Closest report is Newport Regional Airport, 9.3 nm (17.2 km) NE. Retrieved UTC (0 seconds ago):

TAF (pilot weather forecast)

Forecast is more than 12 hours old.

Closest forecast is Jonesboro Municipal Airport, 37.5 nm (69.5 km) ENE. Retrieved 2019/07/20 00:24 UTC (1 day ago):

TAF KJBR 202322Z 2100/2124 18010KT P6SM SCT040 FM210100 20004KT P6SM FEW250 FM211500 23007KT P6SM FEW030 FM211800 21008KT P6SM BKN250